Time;durP1;ratioP1;P1;durP2;ratioP2;P2;SDS_P1;SDS_P2;PMS_P1;PMS_P2;Temp;Humidity;BMP_temperature;BMP_pressure;BME280_temperature;BME280_humidity;BME280_pressure;Samples;Min_cycle;Max_cycle;Signal;HPM_P1;HPM_P2
2023/09/08 00:01:32;;;;;;;;;21.50;20.50;;;;;27.45;44.62;101090.19;4941091;28;45270;-42
2023/09/08 00:03:57;;;;;;;;;23.75;20.25;;;;;27.43;44.71;101084.09;4941265;28;45355;-41
2023/09/08 00:06:22;;;;;;;;;21.25;21.25;;;;;27.43;45.09;101088.59;4940834;28;45455;-42
2023/09/08 00:08:47;;;;;;;;;20.00;20.00;;;;;27.43;44.58;101084.09;4940441;28;57801;-43
2023/09/08 00:11:13;;;;;;;;;21.00;19.75;;;;;27.40;44.93;101087.00;4940580;28;55312;-43
2023/09/08 00:13:39;;;;;;;;;23.33;21.00;;;;;27.41;44.98;101091.34;4940642;28;54397;-42
2023/09/08 00:16:05;;;;;;;;;19.25;19.00;;;;;27.42;44.70;101102.88;4940625;28;45449;-45
2023/09/08 00:18:30;;;;;;;;;21.75;18.25;;;;;27.42;44.89;101106.38;4940688;28;45472;-42
2023/09/08 00:20:56;;;;;;;;;23.25;23.25;;;;;27.41;45.00;101096.69;4940752;28;45712;-44
2023/09/08 00:23:21;;;;;;;;;24.25;21.75;;;;;27.41;45.15;101090.53;4940865;28;45422;-42
2023/09/08 00:25:46;;;;;;;;;21.75;19.25;;;;;27.39;45.07;101082.69;4940416;28;47222;-43
2023/09/08 00:28:11;;;;;;;;;23.25;22.00;;;;;27.39;44.98;101093.31;4940255;28;51997;-43
2023/09/08 00:30:37;;;;;;;;;18.75;18.25;;;;;27.39;44.82;101096.00;4940453;28;53967;-43
2023/09/08 00:33:02;;;;;;;;;19.75;18.25;;;;;27.38;44.95;101086.31;4940251;28;48096;-44
2023/09/08 00:35:27;;;;;;;;;20.00;17.50;;;;;27.40;45.48;101087.00;4940176;28;46577;-42
2023/09/08 00:37:53;;;;;;;;;20.50;18.50;;;;;27.38;45.23;101085.44;4940354;28;45339;-42
2023/09/08 00:40:18;;;;;;;;;23.25;19.75;;;;;27.39;45.18;101087.13;4940261;28;45381;-41
2023/09/08 00:42:43;;;;;;;;;21.00;19.00;;;;;27.38;44.89;101082.78;4940188;28;46695;-42
2023/09/08 00:45:09;;;;;;;;;23.50;20.00;;;;;27.37;45.31;101084.63;4939919;28;62929;-42
2023/09/08 00:47:35;;;;;;;;;18.75;18.00;;;;;27.37;45.06;101084.63;4940218;28;45337;-42
2023/09/08 00:50:02;;;;;;;;;24.25;20.75;;;;;27.36;45.15;101082.06;4940186;28;45359;-43
2023/09/08 00:52:32;;;;;;;;;17.00;14.00;;;;;27.37;44.93;101089.94;4940753;28;45290;-41
2023/09/08 00:54:58;;;;;;;;;20.50;18.25;;;;;27.37;45.17;101084.63;4939992;28;45332;-42
2023/09/08 00:57:23;;;;;;;;;21.75;19.75;;;;;27.37;45.35;101083.75;4940174;28;45376;-43
2023/09/08 00:59:48;;;;;;;;;21.75;20.25;;;;;27.37;45.29;101078.44;4940202;28;45340;-43
2023/09/08 01:02:14;;;;;;;;;21.25;21.25;;;;;27.37;45.01;101081.94;4938992;28;45233;-43
2023/09/08 01:04:41;;;;;;;;;23.00;19.00;;;;;27.36;45.17;101085.59;4939637;28;63285;-43
2023/09/08 01:07:07;;;;;;;;;20.75;20.75;;;;;27.36;45.10;101082.91;4940013;28;45870;-43
2023/09/08 01:09:34;;;;;;;;;19.75;17.50;;;;;27.37;45.26;101084.63;4940144;28;45169;-43
2023/09/08 01:12:01;;;;;;;;;19.75;19.00;;;;;27.36;45.36;101084.72;4940185;28;45354;-42
2023/09/08 01:14:27;;;;;;;;;19.25;17.75;;;;;27.37;45.45;101078.44;4939570;28;46505;-42
2023/09/08 01:16:52;;;;;;;;;19.00;17.50;;;;;27.37;45.14;101084.63;4939725;28;45316;-41
2023/09/08 01:19:19;;;;;;;;;25.25;20.25;;;;;27.36;45.02;101079.41;4939589;28;49920;-44
2023/09/08 01:22:18;;;;;;;;;20.00;19.00;;;;;27.37;45.27;101081.09;4940141;28;45447;-42
2023/09/08 01:25:11;;;;;;;;;21.50;18.25;;;;;27.35;45.38;101075.91;4940025;28;45498;-42
2023/09/08 01:27:40;;;;;;;;;20.75;20.25;;;;;27.32;45.34;101081.47;4939655;28;45802;-40
2023/09/08 01:30:07;;;;;;;;;25.25;21.00;;;;;27.33;45.35;101087.66;4922517;28;45409;-42
2023/09/08 01:32:34;;;;;;;;;23.50;20.50;;;;;27.33;45.80;101088.47;4940030;28;45335;-42
2023/09/08 01:34:59;;;;;;;;;20.50;19.75;;;;;27.33;45.03;101096.47;4939425;28;46842;-43
2023/09/08 01:37:25;;;;;;;;;22.00;19.75;;;;;27.31;45.35;101088.63;4939571;28;45422;-42
2023/09/08 01:39:50;;;;;;;;;22.25;21.00;;;;;27.32;45.70;101078.81;4939648;28;45355;-43
2023/09/08 01:42:16;;;;;;;;;23.75;20.25;;;;;27.32;45.33;101081.47;4939286;28;49737;-43
2023/09/08 01:44:41;;;;;;;;;20.75;18.75;;;;;27.30;45.23;101086.06;4939650;28;45438;-43
2023/09/08 01:47:06;;;;;;;;;19.75;19.25;;;;;27.31;45.56;101093.06;4939407;28;45286;-43
2023/09/08 01:49:32;;;;;;;;;20.50;17.25;;;;;27.30;45.47;101084.25;4938901;28;51640;-43
2023/09/08 01:51:57;;;;;;;;;20.25;19.00;;;;;27.30;45.83;101073.63;4939491;28;45268;-43
2023/09/08 01:54:22;;;;;;;;;18.75;18.00;;;;;27.29;45.43;101085.22;4939072;28;45355;-43
2023/09/08 01:56:48;;;;;;;;;23.75;20.00;;;;;27.27;45.49;101081.00;4939277;28;45363;-42
2023/09/08 01:59:13;;;;;;;;;22.75;19.25;;;;;27.29;45.48;101098.53;4939349;28;46537;-42
2023/09/08 02:01:39;;;;;;;;;21.00;18.00;;;;;27.29;45.63;101089.69;4939493;28;45630;-42
2023/09/08 02:04:05;;;;;;;;;21.75;21.25;;;;;27.28;45.13;101080.03;4939260;28;46258;-41
2023/09/08 02:06:30;;;;;;;;;26.50;21.50;;;;;27.28;45.33;101074.72;4937846;28;45342;-41
2023/09/08 02:08:55;;;;;;;;;22.75;19.75;;;;;27.29;45.64;101073.72;4939197;28;45339;-43
2023/09/08 02:11:21;;;;;;;;;22.00;20.33;;;;;27.28;45.52;101080.03;4938747;28;51372;-44
2023/09/08 02:13:46;;;;;;;;;23.25;20.00;;;;;27.28;45.50;101085.38;4938750;28;46172;-43
2023/09/08 02:16:15;;;;;;;;;23.25;23.25;;;;;27.26;45.66;101082.81;4938843;28;45435;-43
2023/09/08 02:18:44;;;;;;;;;23.75;20.50;;;;;27.28;45.52;101088.03;4939114;28;45379;-42
2023/09/08 02:21:10;;;;;;;;;24.75;22.00;;;;;27.27;45.65;101091.66;4939068;28;45480;-43
2023/09/08 02:23:35;;;;;;;;;21.00;20.50;;;;;27.26;45.51;101093.44;4938730;28;45773;-43
2023/09/08 02:26:01;;;;;;;;;24.50;20.75;;;;;27.27;45.77;101094.31;4938883;28;45461;-41
2023/09/08 02:28:26;;;;;;;;;23.25;21.00;;;;;27.28;45.62;101096.00;4938915;28;45365;-42
2023/09/08 02:30:51;;;;;;;;;23.50;22.50;;;;;27.27;45.62;101099.63;4938905;28;45629;-43
2023/09/08 02:33:17;;;;;;;;;26.25;22.00;;;;;27.25;45.56;101096.25;4938648;28;60686;-43
2023/09/08 02:35:43;;;;;;;;;21.75;20.25;;;;;27.24;45.76;101108.69;4938535;28;45454;-42
2023/09/08 02:38:08;;;;;;;;;24.50;20.75;;;;;27.27;45.96;101104.97;4938903;28;45354;-42
2023/09/08 02:40:34;;;;;;;;;21.00;20.00;;;;;27.24;45.32;101097.22;4938972;28;45475;-44
2023/09/08 02:43:03;;;;;;;;;19.75;18.25;;;;;27.26;45.62;101105.91;4938390;28;46184;-43
2023/09/08 02:45:29;;;;;;;;;22.00;19.00;;;;;27.26;45.57;101100.59;4938556;28;46299;-43
2023/09/08 02:47:54;;;;;;;;;21.75;19.75;;;;;27.27;45.90;101100.47;4938537;28;45362;-43
2023/09/08 02:50:20;;;;;;;;;24.00;21.00;;;;;27.25;45.80;101102.41;4938673;28;45398;-42
2023/09/08 02:52:48;;;;;;;;;20.50;19.00;;;;;27.25;46.23;101098.91;4938703;28;46310;-42
2023/09/08 02:55:13;;;;;;;;;19.50;19.50;;;;;27.23;46.10;101100.84;4938322;28;45358;-42
2023/09/08 02:57:39;;;;;;;;;20.50;19.75;;;;;27.23;46.02;101095.50;4938575;28;45359;-42
2023/09/08 03:00:06;;;;;;;;;16.50;14.75;;;;;27.23;45.73;101107.00;4938721;28;45321;-41
2023/09/08 03:02:31;;;;;;;;;17.75;17.00;;;;;27.24;45.80;101105.19;4938229;28;46203;-42
2023/09/08 03:04:57;;;;;;;;;24.50;21.25;;;;;27.23;45.80;101106.16;4938228;28;45260;-42
2023/09/08 03:07:22;;;;;;;;;19.00;17.00;;;;;27.23;45.92;101109.66;4938359;28;45219;-43
2023/09/08 03:09:47;;;;;;;;;19.75;16.50;;;;;27.23;45.75;101108.81;4938007;28;55590;-43
2023/09/08 03:12:13;;;;;;;;;22.50;19.75;;;;;27.22;46.27;101110.66;4937547;28;62302;-44
2023/09/08 03:14:38;;;;;;;;;22.25;20.25;;;;;27.22;45.88;101107.13;4920732;28;45313;-43
2023/09/08 03:17:03;;;;;;;;;17.75;17.75;;;;;27.23;45.96;101103.50;4938326;28;45246;-43
2023/09/08 03:19:29;;;;;;;;;25.00;21.00;;;;;27.21;45.81;101102.78;4938411;28;45376;-43
2023/09/08 03:21:54;;;;;;;;;21.00;19.25;;;;;27.20;45.79;101101.06;4937848;28;46472;-41
2023/09/08 03:24:19;;;;;;;;;19.00;15.75;;;;;27.20;46.07;101103.75;4937451;28;45414;-42
2023/09/08 03:26:45;;;;;;;;;23.50;19.75;;;;;27.18;45.76;101095.88;4938086;28;45389;-42
2023/09/08 03:29:10;;;;;;;;;20.75;16.75;;;;;27.19;45.85;101094.06;4938196;28;45366;-42
2023/09/08 03:31:36;;;;;;;;;18.25;18.25;;;;;27.17;46.00;101092.38;4937787;28;47446;-42
2023/09/08 03:34:01;;;;;;;;;23.75;20.25;;;;;27.20;45.97;101096.63;4937887;28;45347;-40
2023/09/08 03:36:27;;;;;;;;;21.00;17.75;;;;;27.16;45.84;101095.16;4936809;28;45380;-42
2023/09/08 03:38:52;;;;;;;;;22.50;18.75;;;;;27.19;45.84;101096.72;4938210;28;45390;-42
2023/09/08 03:41:17;;;;;;;;;20.50;18.75;;;;;27.20;46.02;101095.75;4937661;28;56687;-44
2023/09/08 03:43:43;;;;;;;;;19.25;18.25;;;;;27.20;45.96;101099.28;4937829;28;45511;-42
2023/09/08 03:46:08;;;;;;;;;24.75;22.00;;;;;27.20;46.25;101099.28;4937924;28;45427;-40
2023/09/08 03:48:33;;;;;;;;;19.75;18.00;;;;;27.20;46.12;101098.41;4937812;28;45374;-43
2023/09/08 03:50:59;;;;;;;;;19.00;17.00;;;;;27.16;46.07;101096.03;4937526;28;46055;-41
2023/09/08 03:53:24;;;;;;;;;27.75;20.50;;;;;27.18;45.86;101095.88;4937779;28;45411;-43
2023/09/08 03:55:50;;;;;;;;;18.50;18.00;;;;;27.17;45.95;101091.53;4938038;28;45225;-42
2023/09/08 03:58:15;;;;;;;;;20.00;14.75;;;;;27.17;46.28;101095.03;4937850;28;45241;-43
2023/09/08 04:00:41;;;;;;;;;22.00;18.25;;;;;27.16;46.24;101087.19;4937408;28;47082;-42
2023/09/08 04:03:06;;;;;;;;;24.25;18.75;;;;;27.17;46.27;101099.50;4937571;28;45264;-42
2023/09/08 04:05:32;;;;;;;;;21.50;17.75;;;;;27.18;46.17;101090.56;4937115;28;48638;-42
2023/09/08 04:07:57;;;;;;;;;18.50;18.25;;;;;27.16;46.04;101087.19;4937831;28;45327;-42
2023/09/08 04:10:22;;;;;;;;;22.50;21.50;;;;;27.16;46.22;101085.38;4937659;28;46315;-43
2023/09/08 04:12:48;;;;;;;;;25.00;18.75;;;;;27.14;45.67;101084.66;4937383;28;45362;-42
2023/09/08 04:15:13;;;;;;;;;18.50;17.25;;;;;27.14;45.80;101087.31;4937391;28;45267;-42
2023/09/08 04:17:38;;;;;;;;;19.00;18.00;;;;;27.14;46.23;101089.09;4937705;28;45548;-42
2023/09/08 04:20:05;;;;;;;;;18.50;18.00;;;;;27.12;46.20;101081.25;4937248;28;45681;-43
2023/09/08 04:22:31;;;;;;;;;17.75;16.50;;;;;27.11;46.36;101084.88;4937276;28;45311;-42
2023/09/08 04:24:57;;;;;;;;;19.25;19.25;;;;;27.12;46.03;101089.25;4937448;28;45306;-41
2023/09/08 04:27:22;;;;;;;;;23.25;20.75;;;;;27.11;46.73;101092.88;4937783;28;45669;-43
2023/09/08 04:29:48;;;;;;;;;20.75;18.75;;;;;27.11;46.27;101089.38;4937062;28;46453;-42
2023/09/08 04:32:13;;;;;;;;;15.50;15.25;;;;;27.10;46.24;101093.84;4937133;28;45477;-42
2023/09/08 04:34:40;;;;;;;;;20.50;18.00;;;;;27.09;46.28;101086.81;4936844;28;49709;-43
2023/09/08 04:37:05;;;;;;;;;25.00;19.25;;;;;27.08;46.21;101089.63;4940697;28;45440;-41
2023/09/08 04:39:31;;;;;;;;;17.75;17.00;;;;;27.10;46.32;101091.19;4940303;28;45967;-43
2023/09/08 04:41:57;;;;;;;;;20.50;19.25;;;;;27.09;46.53;101093.97;4941414;28;45931;-42
2023/09/08 04:44:22;;;;;;;;;19.50;16.25;;;;;27.11;46.45;101095.53;4942887;28;45356;-42
2023/09/08 04:46:48;;;;;;;;;23.00;16.00;;;;;27.10;46.29;101096.50;4959930;28;45620;-43
2023/09/08 04:49:13;;;;;;;;;17.50;16.00;;;;;27.10;46.42;101098.31;4959364;28;45290;-43
2023/09/08 04:51:38;;;;;;;;;20.00;17.50;;;;;27.09;46.25;101097.47;4959582;28;45393;-42
2023/09/08 04:54:04;;;;;;;;;15.00;14.75;;;;;27.08;46.09;101098.41;4959755;28;45327;-42
2023/09/08 04:56:29;;;;;;;;;19.75;16.75;;;;;27.05;46.28;101090.72;4959799;28;45413;-40
2023/09/08 04:58:55;;;;;;;;;19.25;17.25;;;;;27.03;46.09;101097.97;4959314;28;56291;-42
2023/09/08 05:01:21;;;;;;;;;19.75;14.75;;;;;27.01;46.53;101089.25;4959457;28;45259;-43
2023/09/08 05:03:46;;;;;;;;;18.00;16.75;;;;;27.01;46.12;101099.88;4959579;28;45319;-43
2023/09/08 05:06:13;;;;;;;;;16.50;16.50;;;;;26.99;46.06;101096.50;4959718;28;45687;-42
2023/09/08 05:08:39;;;;;;;;;21.25;18.25;;;;;26.97;46.37;101093.09;4959195;28;45515;-41
2023/09/08 05:11:04;;;;;;;;;16.25;15.25;;;;;26.97;46.19;101101.09;4959305;28;45354;-42
2023/09/08 05:13:30;;;;;;;;;18.00;16.75;;;;;26.95;46.16;101090.59;4959418;28;45317;-42
2023/09/08 05:15:59;;;;;;;;;18.50;16.75;;;;;26.95;46.20;101100.38;4959741;28;45243;-42
2023/09/08 05:18:26;;;;;;;;;18.25;16.25;;;;;26.96;46.25;101097.59;4959348;28;46108;-43
2023/09/08 05:20:52;;;;;;;;;19.50;18.00;;;;;26.96;46.47;101096.72;4959143;28;45895;-42
2023/09/08 05:23:17;;;;;;;;;19.50;19.50;;;;;26.95;46.27;101089.75;4959313;28;45402;-44
2023/09/08 05:25:42;;;;;;;;;19.25;17.75;;;;;26.94;46.28;101099.53;4941340;28;52432;-44
2023/09/08 05:28:08;;;;;;;;;17.50;17.00;;;;;26.96;46.32;101094.06;4958996;28;46364;-43
2023/09/08 05:30:33;;;;;;;;;20.75;18.50;;;;;26.96;46.26;101099.41;4958966;28;45421;-44
2023/09/08 05:32:59;;;;;;;;;20.75;18.00;;;;;26.96;46.17;101104.72;4958963;28;45435;-43
2023/09/08 05:35:24;;;;;;;;;19.00;16.00;;;;;26.96;46.26;101104.72;4959472;28;45386;-44
2023/09/08 05:37:49;;;;;;;;;19.00;16.00;;;;;26.95;46.40;101105.72;4958568;28;56271;-43
2023/09/08 05:40:15;;;;;;;;;20.25;15.75;;;;;26.96;46.32;101104.72;4958614;28;53010;-46
2023/09/08 05:42:40;;;;;;;;;16.00;16.00;;;;;26.97;46.57;101103.75;4958951;28;45181;-42
2023/09/08 05:45:06;;;;;;;;;23.25;18.75;;;;;26.96;46.13;101108.25;4958634;28;48291;-42
2023/09/08 05:47:31;;;;;;;;;15.25;14.25;;;;;26.95;46.17;101106.53;4957825;28;46548;-42
2023/09/08 05:49:56;;;;;;;;;20.00;18.25;;;;;26.96;46.45;101110.03;4958528;28;45386;-42
2023/09/08 05:52:21;;;;;;;;;17.75;15.75;;;;;26.96;46.27;101102.06;4958514;28;46150;-41
2023/09/08 05:54:47;;;;;;;;;14.00;13.75;;;;;26.95;46.23;101105.72;4958306;28;47086;-42
2023/09/08 05:57:12;;;;;;;;;16.00;15.00;;;;;26.94;46.27;101110.16;4958431;28;47063;-43
2023/09/08 05:59:37;;;;;;;;;14.25;14.25;;;;;26.95;46.79;101108.38;4958008;28;57587;-42
2023/09/08 06:02:03;;;;;;;;;19.00;16.75;;;;;26.96;46.04;101116.22;4958584;28;45282;-43
2023/09/08 06:04:31;;;;;;;;;20.75;17.75;;;;;26.97;46.32;101114.38;4958941;28;45156;-43
2023/09/08 06:06:57;;;;;;;;;16.75;13.75;;;;;26.98;46.43;101116.09;4958753;28;47188;-43
2023/09/08 06:09:22;;;;;;;;;18.75;17.75;;;;;26.97;46.86;101114.38;4958326;28;45397;-42
2023/09/08 06:11:48;;;;;;;;;16.50;16.50;;;;;26.98;46.46;101119.59;4958504;28;45890;-42
2023/09/08 06:14:13;;;;;;;;;18.25;16.50;;;;;26.99;46.12;101120.44;4958509;28;45505;-42
2023/09/08 06:16:39;;;;;;;;;21.25;19.50;;;;;26.98;46.50;101108.97;4957328;28;45445;-43
2023/09/08 06:19:05;;;;;;;;;21.25;17.00;;;;;27.00;46.64;101114.16;4958272;28;45854;-42
2023/09/08 06:21:30;;;;;;;;;21.00;17.00;;;;;26.98;46.78;101114.28;4941409;28;45263;-43
2023/09/08 06:23:59;;;;;;;;;22.75;18.50;;;;;26.99;46.68;101123.97;4958768;28;45510;-43
2023/09/08 06:26:24;;;;;;;;;19.75;16.75;;;;;26.99;46.81;101121.31;4957974;28;45561;-43
2023/09/08 06:28:49;;;;;;;;;17.00;13.50;;;;;26.99;46.77;101117.78;4940562;28;46061;-43
2023/09/08 06:31:15;;;;;;;;;18.00;16.25;;;;;26.98;46.57;101111.63;4957748;28;46236;-44
2023/09/08 06:33:40;;;;;;;;;22.25;17.50;;;;;26.98;46.80;101113.44;4958173;28;45521;-43
2023/09/08 06:36:06;;;;;;;;;21.00;17.25;;;;;26.99;46.60;101115.97;4957777;28;46548;-43
2023/09/08 06:38:32;;;;;;;;;17.00;13.25;;;;;26.98;46.77;101122.25;4957789;28;45802;-40
2023/09/08 06:40:58;;;;;;;;;15.75;12.75;;;;;26.99;46.76;101118.66;4958255;28;45463;-43
2023/09/08 06:43:23;;;;;;;;;20.50;18.50;;;;;26.99;46.48;101118.66;4958091;28;45279;-42
2023/09/08 06:45:49;;;;;;;;;20.25;15.50;;;;;27.01;46.79;101126.50;4957562;28;45358;-43
2023/09/08 06:48:15;;;;;;;;;16.25;16.25;;;;;27.00;46.68;101125.66;4957601;28;45476;-43
2023/09/08 06:50:40;;;;;;;;;20.00;18.00;;;;;26.99;46.10;101129.28;4957926;28;45313;-43
2023/09/08 06:53:06;;;;;;;;;17.00;16.25;;;;;26.99;46.81;101128.41;4957674;28;45517;-42
2023/09/08 06:55:31;;;;;;;;;17.75;17.50;;;;;27.00;46.66;101133.63;4957225;28;63093;-42
2023/09/08 06:57:57;;;;;;;;;18.00;15.75;;;;;27.01;46.42;101129.97;4957520;28;45190;-43
2023/09/08 07:00:22;;;;;;;;;22.00;18.50;;;;;27.00;46.45;101125.66;4957545;28;45329;-42
2023/09/08 07:02:49;;;;;;;;;18.75;16.25;;;;;27.00;46.28;101125.66;4957788;28;45548;-43
2023/09/08 07:05:15;;;;;;;;;14.50;13.00;;;;;27.01;46.10;101131.81;4957364;28;47456;-41
2023/09/08 07:07:40;;;;;;;;;13.75;13.50;;;;;27.00;46.26;101130.97;4957510;28;45960;-41
2023/09/08 07:10:06;;;;;;;;;16.50;14.50;;;;;27.01;46.09;101122.00;4957613;28;45338;-42
2023/09/08 07:12:32;;;;;;;;;13.25;12.50;;;;;27.01;45.91;101127.31;4957932;28;45276;-41
2023/09/08 07:14:59;;;;;;;;;13.50;11.75;;;;;27.02;45.56;101130.84;4957137;28;45404;-43
2023/09/08 07:17:24;;;;;;;;;15.75;13.75;;;;;27.02;45.40;101133.50;4957293;28;45370;-43
2023/09/08 07:19:50;;;;;;;;;14.75;12.75;;;;;27.03;45.35;101135.19;4957443;28;45232;-43
2023/09/08 07:22:15;;;;;;;;;13.75;12.50;;;;;27.03;45.42;101129.88;4957548;28;45188;-44
2023/09/08 07:24:41;;;;;;;;;15.00;12.75;;;;;27.05;45.14;101127.94;4957076;28;46741;-43
2023/09/08 07:27:06;;;;;;;;;13.50;13.25;;;;;27.07;45.26;101131.31;4957369;28;45292;-42
2023/09/08 07:29:32;;;;;;;;;17.50;15.75;;;;;27.09;45.28;101134.69;4957481;28;45393;-43
2023/09/08 07:31:57;;;;;;;;;12.25;12.25;;;;;27.11;45.11;101129.28;4957388;28;45249;-43
2023/09/08 07:34:22;;;;;;;;;14.25;11.25;;;;;27.14;45.06;101135.19;4957012;28;45231;-43
2023/09/08 07:36:48;;;;;;;;;12.75;12.75;;;;;27.16;45.09;101146.56;4957158;28;45392;-42
2023/09/08 07:39:13;;;;;;;;;14.75;12.00;;;;;27.16;45.40;101132.41;4956597;28;60418;-42
2023/09/08 07:41:40;;;;;;;;;13.50;11.75;;;;;27.16;45.25;101138.59;4957072;28;46004;-42
2023/09/08 07:44:06;;;;;;;;;12.75;11.50;;;;;27.18;45.08;101138.47;4957411;28;47096;-42
2023/09/08 07:46:31;;;;;;;;;8.75;7.75;;;;;27.18;45.28;101138.47;4957519;28;45755;-42
2023/09/08 07:48:58;;;;;;;;;13.50;12.50;;;;;27.18;45.15;101138.47;4956645;28;48968;-41
2023/09/08 07:51:24;;;;;;;;;12.50;11.50;;;;;27.20;45.46;101141.00;4957312;28;45406;-43
2023/09/08 07:53:49;;;;;;;;;16.50;14.00;;;;;27.21;45.07;101138.22;4956805;28;46519;-43
2023/09/08 07:56:14;;;;;;;;;12.00;12.00;;;;;27.23;45.26;101144.25;4956943;28;45358;-43
2023/09/08 07:58:40;;;;;;;;;15.00;12.50;;;;;27.25;45.30;101144.16;4957040;28;45239;-42
2023/09/08 08:01:05;;;;;;;;;12.75;12.75;;;;;27.25;45.16;101141.47;4957516;28;45237;-43
2023/09/08 08:03:30;;;;;;;;;9.75;9.75;;;;;27.27;44.96;101142.22;4956661;28;45438;-42
2023/09/08 08:05:58;;;;;;;;;13.50;12.00;;;;;27.27;44.98;101140.38;4956843;28;45277;-43
2023/09/08 08:08:24;;;;;;;;;12.75;12.25;;;;;27.28;45.33;101142.09;4950356;28;53829;-43
2023/09/08 08:10:49;;;;;;;;;18.00;13.50;;;;;27.30;44.80;101149.94;4948544;28;45510;-43
2023/09/08 08:13:14;;;;;;;;;11.00;11.00;;;;;27.30;45.14;101142.81;4949980;28;48479;-43
2023/09/08 08:15:42;;;;;;;;;13.00;10.25;;;;;27.31;44.92;101144.50;4948584;28;45415;-43
2023/09/08 08:18:09;;;;;;;;;8.25;8.00;;;;;27.32;44.97;101145.34;4933377;28;45448;-42
2023/09/08 08:20:35;;;;;;;;;11.50;10.50;;;;;27.34;44.99;101150.56;4950716;28;45253;-42
2023/09/08 08:23:02;;;;;;;;;13.25;12.25;;;;;27.34;44.90;101148.72;4931127;28;46708;-42
2023/09/08 08:25:27;;;;;;;;;12.00;11.25;;;;;27.35;44.68;101147.75;4950305;28;45469;-42
2023/09/08 08:27:53;;;;;;;;;18.25;15.25;;;;;27.34;44.69;101147.91;4949706;28;45600;-42
2023/09/08 08:30:18;;;;;;;;;12.75;12.50;;;;;27.36;44.67;101145.94;4949080;28;45699;-42
2023/09/08 08:32:44;;;;;;;;;14.00;11.50;;;;;27.37;45.01;101151.16;4950369;28;46316;-42
2023/09/08 08:35:09;;;;;;;;;15.25;10.75;;;;;27.37;45.07;101158.28;4942857;28;45268;-42
2023/09/08 08:37:38;;;;;;;;;15.25;13.25;;;;;27.38;45.23;101152.84;4940673;28;45359;-42
2023/09/08 08:40:05;;;;;;;;;17.00;12.00;;;;;27.39;44.85;101157.19;4923573;28;45365;-42
2023/09/08 08:42:33;;;;;;;;;14.50;12.00;;;;;27.40;44.77;101158.88;4940272;28;47085;-42
2023/09/08 08:45:00;;;;;;;;;12.25;11.00;;;;;27.40;45.38;101152.72;4940419;28;45757;-41
2023/09/08 08:47:28;;;;;;;;;16.00;15.25;;;;;27.41;45.30;101155.25;4940344;28;45371;-41
2023/09/08 08:49:56;;;;;;;;;12.75;11.25;;;;;27.44;44.89;101162.19;4940318;28;45382;-40
2023/09/08 08:52:21;;;;;;;;;13.50;12.50;;;;;27.36;44.99;101146.78;4940194;28;46616;-40
2023/09/08 08:54:47;;;;;;;;;12.25;11.75;;;;;27.43;45.02;101161.28;4940098;28;45295;-41
2023/09/08 08:57:13;;;;;;;;;14.50;12.75;;;;;27.45;45.12;101167.38;4940301;28;45221;-42
2023/09/08 08:59:41;;;;;;;;;14.75;12.50;;;;;27.46;45.38;101170.88;4940798;28;45652;-40
2023/09/08 09:02:08;;;;;;;;;14.00;13.25;;;;;27.47;45.11;101164.59;4940290;28;47433;-40
2023/09/08 09:04:36;;;;;;;;;14.75;13.50;;;;;27.45;45.03;101164.72;4939997;28;45398;-42
2023/09/08 09:07:02;;;;;;;;;15.75;13.25;;;;;27.47;45.14;101167.25;4940235;28;45213;-42
2023/09/08 09:09:28;;;;;;;;;12.75;12.75;;;;;27.49;45.10;101170.63;4941545;28;45470;-41
2023/09/08 09:11:54;;;;;;;;;15.75;12.00;;;;;27.49;45.16;101167.13;4939699;28;45416;-41
2023/09/08 09:14:19;;;;;;;;;14.75;13.75;;;;;27.51;45.31;101165.19;4939835;28;45340;-43
2023/09/08 09:16:45;;;;;;;;;16.25;14.25;;;;;27.52;44.98;101164.22;4939940;28;45335;-43
2023/09/08 09:19:20;;;;;;;;;15.00;12.50;;;;;27.52;45.43;101161.56;4940350;28;45430;-42
2023/09/08 09:21:48;;;;;;;;;17.00;13.25;;;;;27.55;44.97;101171.97;4938567;28;47166;-42
2023/09/08 09:24:27;;;;;;;;;13.75;13.00;;;;;27.55;45.32;101162.19;4939631;28;45442;-41
2023/09/08 09:26:53;;;;;;;;;16.00;14.00;;;;;27.55;45.19;101158.66;4940000;28;45241;-42
2023/09/08 09:29:18;;;;;;;;;16.00;14.00;;;;;27.56;45.13;101160.34;4940051;28;45631;-40
2023/09/08 09:31:54;;;;;;;;;16.50;14.00;;;;;27.55;44.92;101161.31;4939488;28;46133;-42
2023/09/08 09:34:21;;;;;;;;;13.75;13.25;;;;;27.56;45.28;101169.16;4939601;28;45615;-41
2023/09/08 09:36:51;;;;;;;;;13.50;12.50;;;;;27.55;45.57;101158.66;4939600;28;45299;-44
2023/09/08 09:39:18;;;;;;;;;15.75;14.75;;;;;27.55;45.23;101162.19;4939900;28;45590;-42
2023/09/08 09:41:44;;;;;;;;;19.00;13.25;;;;;27.55;45.46;101155.97;4939329;28;45397;-40
2023/09/08 09:44:10;;;;;;;;;13.00;12.00;;;;;27.53;45.46;101150.78;4939845;28;45445;-42
2023/09/08 09:46:36;;;;;;;;;18.25;12.50;;;;;27.54;45.60;101149.81;4938440;28;45430;-42
2023/09/08 09:49:02;;;;;;;;;17.00;14.00;;;;;27.54;45.21;101156.94;4939530;28;45592;-42
2023/09/08 09:51:28;;;;;;;;;15.00;14.50;;;;;27.53;45.18;101155.25;4939147;28;46354;-42
2023/09/08 09:53:54;;;;;;;;;17.25;13.00;;;;;27.53;45.52;101150.78;4939458;28;45796;-41
2023/09/08 09:56:23;;;;;;;;;17.00;13.50;;;;;27.53;45.46;101153.47;4939520;28;45454;-42
2023/09/08 09:58:49;;;;;;;;;12.00;8.75;;;;;27.54;45.38;101148.97;4938361;28;45236;-43
2023/09/08 10:01:16;;;;;;;;;12.00;11.25;;;;;27.54;45.33;101157.81;4939216;28;46390;-41
2023/09/08 10:03:42;;;;;;;;;15.00;12.25;;;;;27.54;45.34;101149.81;4939458;28;45485;-41
2023/09/08 10:06:09;;;;;;;;;18.25;12.50;;;;;27.55;45.25;101151.53;4937934;28;45412;-42
2023/09/08 10:08:37;;;;;;;;;14.50;14.25;;;;;27.54;45.39;101152.50;4939432;28;45613;-42
2023/09/08 10:11:08;;;;;;;;;15.25;12.75;;;;;27.53;45.18;101141.94;4938999;28;45326;-42
2023/09/08 10:13:40;;;;;;;;;15.00;11.75;;;;;27.53;45.80;101140.16;4939122;28;45630;-43
2023/09/08 10:16:07;;;;;;;;;14.50;13.50;;;;;27.54;45.29;101143.63;4938890;28;45413;-42
2023/09/08 10:18:35;;;;;;;;;14.25;11.00;;;;;27.56;45.56;101141.72;4939183;28;45533;-42
2023/09/08 10:21:04;;;;;;;;;13.50;11.00;;;;;27.57;45.19;101144.22;4938818;28;46032;-41
2023/09/08 10:23:42;;;;;;;;;15.75;13.25;;;;;27.57;45.56;101144.22;4938780;28;45850;-43
2023/09/08 10:26:12;;;;;;;;;12.25;11.50;;;;;27.60;45.58;101148.50;4938779;28;45396;-42
2023/09/08 10:28:38;;;;;;;;;12.75;10.25;;;;;27.60;45.40;101143.16;4938845;28;45240;-43
2023/09/08 10:31:05;;;;;;;;;12.00;12.00;;;;;27.60;45.37;101149.31;4938619;28;46349;-42
2023/09/08 10:33:32;;;;;;;;;14.00;11.75;;;;;27.60;45.12;101145.81;4938483;28;45784;-41
2023/09/08 10:35:59;;;;;;;;;14.50;13.00;;;;;27.59;45.24;101146.78;4938739;28;45336;-44
2023/09/08 10:38:32;;;;;;;;;16.25;12.50;;;;;27.58;45.00;101145.94;4938921;28;45376;-43
2023/09/08 10:41:16;;;;;;;;;13.00;11.75;;;;;27.60;45.20;101148.50;4938443;28;46623;-42
2023/09/08 10:44:07;;;;;;;;;13.25;10.50;;;;;27.58;45.06;101145.09;4938557;28;45375;-41
2023/09/08 10:46:34;;;;;;;;;10.25;10.25;;;;;27.58;45.56;101150.41;4938761;28;45233;-42
2023/09/08 10:49:04;;;;;;;;;13.50;12.50;;;;;27.57;45.44;101144.22;4938403;28;45565;-44
2023/09/08 10:51:30;;;;;;;;;13.00;12.25;;;;;27.58;45.33;101145.09;4937187;28;47730;-44
2023/09/08 10:53:56;;;;;;;;;14.00;12.00;;;;;27.58;45.63;101145.09;4938352;28;45248;-41
2023/09/08 10:56:27;;;;;;;;;15.75;12.00;;;;;27.59;45.60;101138.81;4938642;28;45379;-43
2023/09/08 10:58:54;;;;;;;;;12.50;12.00;;;;;27.59;45.61;101141.47;4938536;28;45356;-43
2023/09/08 11:01:26;;;;;;;;;11.00;11.00;;;;;27.59;45.09;101128.16;4938193;28;45593;-42
2023/09/08 11:03:53;;;;;;;;;12.50;11.50;;;;;27.58;45.27;101129.94;4938241;28;45667;-41
2023/09/08 11:06:22;;;;;;;;;13.25;11.00;;;;;27.59;45.54;101130.81;4938313;28;45447;-40